Time;durP1;ratioP1;P1;durP2;ratioP2;P2;SDS_P1;SDS_P2;PMS_P1;PMS_P2;Temp;Humidity;BMP_temperature;BMP_pressure;BME280_temperature;BME280_humidity;BME280_pressure;Samples;Min_cycle;Max_cycle;Signal;HPM_P1;HPM_P2
2023/05/26 00:00:36;;;;;;;6.90;2.42;;;16.20;99.90;;;;;;5074854;28;20043;-78
2023/05/26 00:03:04;;;;;;;4.20;2.30;;;16.30;99.90;;;;;;5074647;28;20036;-78
2023/05/26 00:05:30;;;;;;;4.93;2.38;;;16.50;99.90;;;;;;5074773;28;20027;-78
2023/05/26 00:07:56;;;;;;;4.38;2.25;;;16.80;99.90;;;;;;5074875;28;20032;-78
2023/05/26 00:10:21;;;;;;;8.85;2.85;;;16.80;99.90;;;;;;5074573;28;20040;-78
2023/05/26 00:12:47;;;;;;;3.88;2.15;;;16.70;99.90;;;;;;5074540;28;20024;-78
2023/05/26 00:15:13;;;;;;;5.07;2.55;;;16.80;99.90;;;;;;5074629;28;20534;-78
2023/05/26 00:17:38;;;;;;;4.35;2.40;;;16.80;99.90;;;;;;5073334;28;20115;-78
2023/05/26 00:20:07;;;;;;;5.47;2.30;;;16.80;99.90;;;;;;5074594;28;20028;-78
2023/05/26 00:22:34;;;;;;;7.18;3.08;;;16.70;99.90;;;;;;5074346;28;20029;-78
2023/05/26 00:25:00;;;;;;;5.82;2.78;;;16.60;99.90;;;;;;5074128;28;20398;-78
2023/05/26 00:27:26;;;;;;;5.30;2.45;;;16.70;99.90;;;;;;5074389;28;20032;-78
2023/05/26 00:29:52;;;;;;;4.45;2.38;;;16.30;99.90;;;;;;5074487;28;20017;-78
2023/05/26 00:32:17;;;;;;;4.45;1.98;;;16.00;99.90;;;;;;5074226;28;20031;-78
2023/05/26 00:34:43;;;;;;;5.35;2.38;;;15.80;99.90;;;;;;5074156;28;20039;-78
2023/05/26 00:37:09;;;;;;;9.75;3.20;;;15.90;99.90;;;;;;5074018;28;20086;-78
2023/05/26 00:39:35;;;;;;;6.15;2.65;;;16.00;99.90;;;;;;5073938;28;20029;-78
2023/05/26 00:42:01;;;;;;;6.97;3.10;;;15.80;99.90;;;;;;5074211;28;20467;-78
2023/05/26 00:44:27;;;;;;;11.23;2.60;;;15.70;99.90;;;;;;5073928;28;20486;-78
2023/05/26 00:46:52;;;;;;;4.93;2.67;;;15.30;99.90;;;;;;5073311;28;20033;-78
2023/05/26 00:49:18;;;;;;;6.00;2.50;;;15.20;99.90;;;;;;5073679;28;20024;-78
2023/05/26 00:51:45;;;;;;;6.38;2.60;;;15.30;99.90;;;;;;5073806;28;20028;-78
2023/05/26 00:54:13;;;;;;;4.80;1.98;;;15.40;99.90;;;;;;5073591;28;20270;-78
2023/05/26 00:56:38;;;;;;;8.05;2.70;;;15.50;99.90;;;;;;5073589;28;20119;-78
2023/05/26 00:59:04;;;;;;;4.60;2.50;;;15.30;99.90;;;;;;5073502;28;20158;-77
2023/05/26 01:01:31;;;;;;;4.22;2.40;;;15.30;99.90;;;;;;5073554;28;20028;-78
2023/05/26 01:03:58;;;;;;;7.07;2.50;;;15.40;99.90;;;;;;5073659;28;20221;-78
2023/05/26 01:06:24;;;;;;;4.45;2.45;;;15.50;99.90;;;;;;5073793;28;20096;-78
2023/05/26 01:08:50;;;;;;;4.97;2.25;;;15.50;99.90;;;;;;5073450;28;20125;-78
2023/05/26 01:11:43;;;;;;;5.25;2.60;;;15.50;99.90;;;;;;5073516;28;20029;-78
2023/05/26 01:14:37;;;;;;;6.18;2.75;;;15.40;99.90;;;;;;5063366;28;20032;-78
2023/05/26 01:17:39;;;;;;;3.50;2.17;;;15.50;99.90;;;;;;5073050;28;20028;-78
2023/05/26 01:20:38;;;;;;;8.30;2.97;;;15.40;99.90;;;;;;5073542;28;20032;-78
2023/05/26 01:23:51;;;;;;;7.43;2.38;;;15.50;99.90;;;;;;5072136;28;20048;-78
2023/05/26 01:26:33;;;;;;;6.47;2.55;;;15.80;99.90;;;;;;5051271;28;20483;-78
2023/05/26 01:29:07;;;;;;;4.45;2.17;;;15.80;99.90;;;;;;5051232;28;20475;-78
2023/05/26 01:31:33;;;;;;;5.47;2.47;;;15.70;99.90;;;;;;5064947;28;20033;-78
2023/05/26 01:34:00;;;;;;;3.75;2.33;;;15.50;99.90;;;;;;5073368;28;20025;-77
2023/05/26 01:36:28;;;;;;;4.43;2.42;;;15.30;99.90;;;;;;5073376;28;20050;-78
2023/05/26 01:38:54;;;;;;;4.90;2.28;;;15.20;99.90;;;;;;5072741;28;20021;-78
2023/05/26 01:41:47;;;;;;;5.78;2.53;;;15.20;99.90;;;;;;5073064;28;20109;-78
2023/05/26 01:44:48;;;;;;;7.75;2.83;;;15.00;99.90;;;;;;5072478;28;20048;-78
2023/05/26 01:47:15;;;;;;;5.25;3.15;;;15.10;99.90;;;;;;5072459;28;20079;-78
2023/05/26 01:49:45;;;;;;;7.22;2.70;;;15.30;99.90;;;;;;5072777;28;20024;-78
2023/05/26 01:52:12;;;;;;;5.93;1.88;;;15.30;99.90;;;;;;5072872;28;20025;-78
2023/05/26 01:54:46;;;;;;;8.95;2.97;;;15.00;99.90;;;;;;5072470;28;20017;-78
2023/05/26 01:57:13;;;;;;;4.50;2.50;;;14.80;99.90;;;;;;5072827;28;20524;-78
2023/05/26 01:59:39;;;;;;;6.93;2.45;;;14.80;99.90;;;;;;5072388;28;20028;-78
2023/05/26 02:02:05;;;;;;;5.85;2.58;;;14.90;99.90;;;;;;5072709;28;20402;-77
2023/05/26 02:04:31;;;;;;;6.80;2.88;;;14.80;99.90;;;;;;5072693;28;20025;-78
2023/05/26 02:06:57;;;;;;;7.88;2.75;;;14.70;99.90;;;;;;5072247;28;20119;-78
2023/05/26 02:09:23;;;;;;;5.03;2.55;;;14.80;99.90;;;;;;5072681;28;20425;-78
2023/05/26 02:11:48;;;;;;;5.30;2.70;;;14.80;99.90;;;;;;5072787;28;20037;-78
2023/05/26 02:14:15;;;;;;;6.25;2.95;;;14.70;99.90;;;;;;5072727;28;20482;-78
2023/05/26 02:16:41;;;;;;;4.70;2.70;;;14.80;99.90;;;;;;5072595;28;20020;-78
2023/05/26 02:19:10;;;;;;;8.30;3.83;;;15.00;99.90;;;;;;5072417;28;20024;-78
2023/05/26 02:21:35;;;;;;;5.93;2.50;;;15.20;99.90;;;;;;5072476;28;20032;-78
2023/05/26 02:24:01;;;;;;;6.55;2.83;;;15.30;99.90;;;;;;5072732;28;20031;-78
2023/05/26 02:26:27;;;;;;;5.13;2.63;;;15.30;99.90;;;;;;5072618;28;20063;-78
2023/05/26 02:28:55;;;;;;;4.75;2.75;;;15.10;99.90;;;;;;5072471;28;20029;-78
2023/05/26 02:31:21;;;;;;;3.80;2.22;;;15.10;99.90;;;;;;5072636;28;20103;-78
2023/05/26 02:33:46;;;;;;;5.43;2.38;;;15.20;99.90;;;;;;5072788;28;20116;-78
2023/05/26 02:36:13;;;;;;;7.30;2.45;;;15.10;99.90;;;;;;5072025;28;20021;-78
2023/05/26 02:38:40;;;;;;;5.38;2.95;;;15.00;99.90;;;;;;5072357;28;20020;-77
2023/05/26 02:41:07;;;;;;;9.15;3.58;;;15.10;99.90;;;;;;5072509;28;20428;-78
2023/05/26 02:43:32;;;;;;;7.10;2.60;;;15.10;99.90;;;;;;5072638;28;20483;-78
2023/05/26 02:45:58;;;;;;;5.60;2.83;;;14.90;99.90;;;;;;5072199;28;20040;-78
2023/05/26 02:48:24;;;;;;;5.93;2.92;;;14.70;99.90;;;;;;5072482;28;20017;-78
2023/05/26 02:50:50;;;;;;;5.30;2.47;;;14.70;99.90;;;;;;5072096;28;20040;-78
2023/05/26 02:53:15;;;;;;;4.32;2.30;;;14.70;99.90;;;;;;5072481;28;20417;-78
2023/05/26 02:55:42;;;;;;;4.65;2.40;;;14.70;99.90;;;;;;5072395;28;20067;-78
2023/05/26 02:58:08;;;;;;;6.57;2.33;;;14.70;99.90;;;;;;5072247;28;20056;-78
2023/05/26 03:00:33;;;;;;;5.97;2.70;;;14.70;99.90;;;;;;5072409;28;20433;-78
2023/05/26 03:03:00;;;;;;;9.80;3.03;;;14.80;99.90;;;;;;5066187;28;20059;-77
2023/05/26 03:05:25;;;;;;;5.90;2.83;;;14.90;99.90;;;;;;5046207;28;20029;-77
2023/05/26 03:07:51;;;;;;;6.95;2.60;;;14.70;99.90;;;;;;5046094;28;20055;-77
2023/05/26 03:10:17;;;;;;;5.40;2.42;;;14.70;99.90;;;;;;5046641;28;20029;-77
2023/05/26 03:12:42;;;;;;;5.50;2.72;;;14.70;99.90;;;;;;5049508;28;20029;-78
2023/05/26 03:15:08;;;;;;;4.00;2.42;;;14.60;99.90;;;;;;5049606;28;20037;-77
2023/05/26 03:17:34;;;;;;;5.35;2.58;;;14.60;99.90;;;;;;5048253;28;20437;-78
2023/05/26 03:19:59;;;;;;;9.32;2.72;;;14.60;99.90;;;;;;5047021;28;20021;-77
2023/05/26 03:22:25;;;;;;;5.30;3.03;;;14.50;99.90;;;;;;5047142;28;20060;-78
2023/05/26 03:24:51;;;;;;;7.97;2.50;;;14.40;99.90;;;;;;5050182;28;20083;-78
2023/05/26 03:27:17;;;;;;;4.82;2.75;;;14.30;99.90;;;;;;5050096;28;20056;-78
2023/05/26 03:29:43;;;;;;;10.45;3.13;;;14.50;99.90;;;;;;5050232;28;20055;-78
2023/05/26 03:32:09;;;;;;;4.97;2.75;;;14.70;99.90;;;;;;5050249;28;20656;-77
2023/05/26 03:34:39;;;;;;;5.05;2.95;;;14.70;99.90;;;;;;5049909;28;20502;-78
2023/05/26 03:37:06;;;;;;;10.05;3.70;;;14.50;99.90;;;;;;5049928;28;20574;-78
2023/05/26 03:39:31;;;;;;;8.30;3.17;;;14.60;99.90;;;;;;5049863;28;20415;-78
2023/05/26 03:41:57;;;;;;;5.53;2.78;;;14.70;99.90;;;;;;5049637;28;20037;-78
2023/05/26 03:44:23;;;;;;;5.80;2.63;;;14.70;99.90;;;;;;5049473;28;20479;-77
2023/05/26 03:46:49;;;;;;;9.50;2.97;;;14.60;99.90;;;;;;5049745;28;20033;-77
2023/05/26 03:49:15;;;;;;;6.22;2.58;;;14.60;99.90;;;;;;5049530;28;20032;-78
2023/05/26 03:51:40;;;;;;;7.20;2.63;;;14.50;99.90;;;;;;5049689;28;20467;-78
2023/05/26 03:54:06;;;;;;;7.47;3.00;;;14.50;99.90;;;;;;5049604;28;20510;-77
2023/05/26 03:56:32;;;;;;;5.57;2.97;;;14.40;99.90;;;;;;5047494;28;20081;-78
2023/05/26 03:58:58;;;;;;;5.97;3.08;;;14.40;99.90;;;;;;5046135;28;20077;-77
2023/05/26 04:01:25;;;;;;;8.30;3.08;;;14.50;99.90;;;;;;5046271;28;20029;-77
2023/05/26 04:03:51;;;;;;;4.75;3.13;;;14.50;99.90;;;;;;5045719;28;20847;-77
2023/05/26 04:06:16;;;;;;;9.23;3.20;;;14.60;99.90;;;;;;5046431;28;20036;-77
2023/05/26 04:08:42;;;;;;;8.02;3.13;;;14.90;99.90;;;;;;5047010;28;20049;-78
2023/05/26 04:11:08;;;;;;;13.15;4.25;;;14.90;99.90;;;;;;5046449;28;20021;-77
2023/05/26 04:13:40;;;;;;;5.97;3.25;;;15.20;99.90;;;;;;5046262;28;20025;-77
2023/05/26 04:16:06;;;;;;;11.00;2.85;;;15.30;99.90;;;;;;5045865;28;20494;-78
2023/05/26 04:18:32;;;;;;;15.18;3.78;;;15.40;99.90;;;;;;5045740;28;20049;-78
2023/05/26 04:20:58;;;;;;;5.85;3.13;;;15.20;99.90;;;;;;5045742;28;20040;-78
2023/05/26 04:23:24;;;;;;;7.15;2.95;;;15.10;99.90;;;;;;5046015;28;20029;-77
2023/05/26 04:25:50;;;;;;;4.85;3.10;;;15.10;99.90;;;;;;5046072;28;20039;-77
2023/05/26 04:28:15;;;;;;;7.65;3.67;;;14.90;99.90;;;;;;5045583;28;20601;-77
2023/05/26 04:30:42;;;;;;;5.03;2.80;;;14.80;99.90;;;;;;5045569;28;20024;-77
2023/05/26 04:33:09;;;;;;;6.20;2.83;;;14.90;99.90;;;;;;5045304;28;20029;-77
2023/05/26 04:35:35;;;;;;;7.40;3.00;;;14.80;99.90;;;;;;5045675;28;20485;-77
2023/05/26 04:38:04;;;;;;;6.47;2.97;;;14.80;99.90;;;;;;5045570;28;20032;-77
2023/05/26 04:40:34;;;;;;;5.72;2.90;;;14.90;99.90;;;;;;5045482;28;20539;-77
2023/05/26 04:43:00;;;;;;;6.72;3.15;;;15.10;99.90;;;;;;5045370;28;20040;-77
2023/05/26 04:45:27;;;;;;;5.90;3.42;;;15.20;99.90;;;;;;5045716;28;20029;-77
2023/05/26 04:47:54;;;;;;;6.63;2.85;;;15.20;99.90;;;;;;5045549;28;20059;-77
2023/05/26 04:50:22;;;;;;;6.50;3.17;;;15.20;99.90;;;;;;5045189;28;20020;-78
2023/05/26 04:52:49;;;;;;;5.95;3.15;;;15.10;99.90;;;;;;5045444;28;20028;-77
2023/05/26 04:55:15;;;;;;;5.05;2.83;;;15.00;99.90;;;;;;5045108;28;20382;-77
2023/05/26 04:57:41;;;;;;;5.07;2.95;;;14.90;99.90;;;;;;5045552;28;20498;-77
2023/05/26 05:00:10;;;;;;;6.88;3.30;;;15.00;99.90;;;;;;5045215;28;20029;-77
2023/05/26 05:02:36;;;;;;;7.63;3.50;;;15.00;99.90;;;;;;5045039;28;20037;-77
2023/05/26 05:05:02;;;;;;;8.00;3.05;;;14.90;99.90;;;;;;5045016;28;20028;-77
2023/05/26 05:07:28;;;;;;;6.95;3.60;;;14.90;99.90;;;;;;5045210;28;20404;-78
2023/05/26 05:09:54;;;;;;;8.88;3.75;;;15.10;99.90;;;;;;5045075;28;20021;-77
2023/05/26 05:12:19;;;;;;;8.45;3.22;;;15.30;99.90;;;;;;5044771;28;20108;-78
2023/05/26 05:14:45;;;;;;;6.05;3.50;;;15.40;99.90;;;;;;5044801;28;20029;-77
2023/05/26 05:17:11;;;;;;;6.68;3.00;;;15.20;99.90;;;;;;5045072;28;20036;-77
2023/05/26 05:19:37;;;;;;;5.07;2.78;;;15.10;99.90;;;;;;5044993;28;20029;-77
2023/05/26 05:22:02;;;;;;;7.55;3.10;;;15.00;99.90;;;;;;5045248;28;20036;-78
2023/05/26 05:24:28;;;;;;;7.82;3.05;;;15.10;99.90;;;;;;5045188;28;20249;-77
2023/05/26 05:26:54;;;;;;;6.55;3.70;;;15.10;99.90;;;;;;5044196;28;20036;-77
2023/05/26 05:29:20;;;;;;;7.65;2.85;;;15.30;99.90;;;;;;5044961;28;20680;-78
2023/05/26 05:31:45;;;;;;;7.90;2.92;;;15.30;99.90;;;;;;5044674;28;20017;-77
2023/05/26 05:34:11;;;;;;;6.55;3.30;;;15.40;99.90;;;;;;5044157;28;20029;-77
2023/05/26 05:36:37;;;;;;;6.70;3.40;;;15.50;99.90;;;;;;5044812;28;20433;-78
2023/05/26 05:39:02;;;;;;;5.57;3.10;;;15.50;99.90;;;;;;5044218;28;20117;-77
2023/05/26 05:41:28;;;;;;;8.43;3.58;;;15.50;99.90;;;;;;5059532;28;20060;-77
2023/05/26 05:43:56;;;;;;;7.85;3.08;;;15.50;99.90;;;;;;5060181;28;20370;-77
2023/05/26 05:46:23;;;;;;;5.70;3.50;;;15.40;99.90;;;;;;5044818;28;20476;-77
2023/05/26 05:48:49;;;;;;;6.00;2.70;;;15.50;99.90;;;;;;5044198;28;20032;-78
2023/05/26 05:51:15;;;;;;;5.72;3.75;;;15.50;99.90;;;;;;5044657;28;20029;-78
2023/05/26 05:53:40;;;;;;;4.97;2.67;;;15.60;99.90;;;;;;5044381;28;20043;-78
2023/05/26 05:56:06;;;;;;;8.07;3.25;;;15.70;99.90;;;;;;5043937;28;20051;-77
2023/05/26 05:58:32;;;;;;;5.35;2.95;;;15.90;99.90;;;;;;5044042;28;20033;-78
2023/05/26 06:00:57;;;;;;;8.43;3.63;;;16.00;99.90;;;;;;5043931;28;20033;-77
2023/05/26 06:03:23;;;;;;;5.40;3.30;;;16.00;99.90;;;;;;5044126;28;20033;-78
2023/05/26 06:05:49;;;;;;;8.13;3.97;;;16.10;99.90;;;;;;5044407;28;20037;-78
2023/05/26 06:08:14;;;;;;;5.03;3.20;;;16.10;99.90;;;;;;5044480;28;20029;-78
2023/05/26 06:10:40;;;;;;;6.47;3.47;;;16.10;99.90;;;;;;5043825;28;20029;-77
2023/05/26 06:13:06;;;;;;;9.88;3.60;;;16.20;99.90;;;;;;5044378;28;20468;-78
2023/05/26 06:15:31;;;;;;;6.28;3.60;;;16.20;99.90;;;;;;5044311;28;20132;-78
2023/05/26 06:17:57;;;;;;;5.80;3.95;;;16.20;99.90;;;;;;5043750;28;20646;-78
2023/05/26 06:20:22;;;;;;;4.45;2.92;;;16.30;99.90;;;;;;5043804;28;20025;-78
2023/05/26 06:22:48;;;;;;;7.18;3.55;;;16.30;99.90;;;;;;5044156;28;20117;-78
2023/05/26 06:25:14;;;;;;;8.98;4.15;;;16.40;99.90;;;;;;5044179;28;20039;-78
2023/05/26 06:27:40;;;;;;;4.50;2.70;;;16.50;99.90;;;;;;5043983;28;20025;-77
2023/05/26 06:30:06;;;;;;;5.53;2.80;;;16.50;99.90;;;;;;5044183;28;20108;-78
2023/05/26 06:32:32;;;;;;;7.47;3.55;;;16.50;99.90;;;;;;5044094;28;20554;-78
2023/05/26 06:34:57;;;;;;;7.38;3.13;;;16.60;99.90;;;;;;5044074;28;20111;-78
2023/05/26 06:37:23;;;;;;;5.50;2.88;;;16.70;99.90;;;;;;5043987;28;20116;-78
2023/05/26 06:39:49;;;;;;;6.00;3.00;;;16.80;99.90;;;;;;5043600;28;20055;-79
2023/05/26 06:42:15;;;;;;;5.63;2.97;;;16.90;99.90;;;;;;5043678;28;20486;-79
2023/05/26 06:44:40;;;;;;;7.32;3.28;;;16.90;99.90;;;;;;5043849;28;20029;-80
2023/05/26 06:47:07;;;;;;;9.07;2.70;;;17.00;99.90;;;;;;5046700;28;20032;-80
2023/05/26 06:49:32;;;;;;;6.03;2.78;;;17.10;99.90;;;;;;5047409;28;20030;-80
2023/05/26 06:51:58;;;;;;;6.30;3.35;;;17.30;99.90;;;;;;5047493;28;20025;-79
2023/05/26 06:54:24;;;;;;;6.57;3.05;;;17.40;99.90;;;;;;5047247;28;20099;-79
2023/05/26 06:56:49;;;;;;;4.88;3.13;;;17.50;99.90;;;;;;5047471;28;20041;-79
2023/05/26 06:59:15;;;;;;;5.20;3.35;;;17.70;99.90;;;;;;5050516;28;20025;-80
2023/05/26 07:01:41;;;;;;;4.90;3.10;;;17.90;99.90;;;;;;5050805;28;20021;-80
2023/05/26 07:04:06;;;;;;;7.20;3.00;;;18.10;99.90;;;;;;5050854;28;20037;-80
2023/05/26 07:06:32;;;;;;;5.43;3.33;;;18.30;99.90;;;;;;5050002;28;20040;-79
2023/05/26 07:08:59;;;;;;;4.88;2.85;;;18.40;99.90;;;;;;5050437;28;20067;-79
2023/05/26 07:11:25;;;;;;;7.22;3.72;;;18.80;99.90;;;;;;5050129;28;20044;-80
2023/05/26 07:13:54;;;;;;;12.20;3.85;;;19.00;99.90;;;;;;5050352;28;20029;-80
2023/05/26 07:16:20;;;;;;;7.10;3.30;;;19.30;99.90;;;;;;5050199;28;20021;-80
2023/05/26 07:18:46;;;;;;;6.47;2.75;;;19.70;99.90;;;;;;5050057;28;20025;-79
2023/05/26 07:21:11;;;;;;;7.63;3.08;;;19.80;99.90;;;;;;5050099;28;20414;-80
2023/05/26 07:23:37;;;;;;;4.93;3.08;;;20.30;99.90;;;;;;5050041;28;20386;-80
2023/05/26 07:26:03;;;;;;;5.28;3.13;;;20.90;99.90;;;;;;5050218;28;20031;-80
2023/05/26 07:28:28;;;;;;;5.75;3.10;;;21.80;99.90;;;;;;5050043;28;20108;-80
2023/05/26 07:30:54;;;;;;;6.90;3.08;;;22.90;98.40;;;;;;5049780;28;20029;-80
2023/05/26 07:33:20;;;;;;;4.35;2.88;;;24.00;97.70;;;;;;5049949;28;20059;-78
2023/05/26 07:35:45;;;;;;;7.63;3.13;;;24.70;95.80;;;;;;5050299;28;20067;-79
2023/05/26 07:38:11;;;;;;;6.93;3.58;;;25.20;95.40;;;;;;5049445;28;20403;-78
2023/05/26 07:40:39;;;;;;;7.40;3.72;;;26.30;94.20;;;;;;5049861;28;20083;-79
2023/05/26 07:43:04;;;;;;;6.05;3.05;;;26.60;94.00;;;;;;5049740;28;20037;-78
2023/05/26 07:45:30;;;;;;;5.07;3.00;;;26.10;93.60;;;;;;5049924;28;20055;-79
2023/05/26 07:47:56;;;;;;;5.28;2.60;;;26.20;93.80;;;;;;5049830;28;20440;-80
2023/05/26 07:50:21;;;;;;;4.82;2.88;;;25.90;93.80;;;;;;5049772;28;20029;-79
2023/05/26 07:52:47;;;;;;;7.43;2.80;;;25.70;94.20;;;;;;5049639;28;20100;-79
2023/05/26 07:55:13;;;;;;;6.10;3.17;;;25.40;93.90;;;;;;5048983;28;20084;-79
2023/05/26 07:57:39;;;;;;;7.35;2.97;;;24.30;94.40;;;;;;5046140;28;20033;-79
2023/05/26 08:00:07;;;;;;;7.32;2.72;;;23.80;95.20;;;;;;5046650;28;20368;-79
2023/05/26 08:02:32;;;;;;;5.97;3.28;;;23.40;95.00;;;;;;5049116;28;20059;-80
2023/05/26 08:04:58;;;;;;;8.73;2.80;;;23.10;95.50;;;;;;5048967;28;20025;-80
2023/05/26 08:07:23;;;;;;;5.88;2.90;;;22.50;96.20;;;;;;5048885;28;20029;-79
2023/05/26 08:09:49;;;;;;;4.93;2.42;;;22.30;96.90;;;;;;5049000;28;20443;-80
2023/05/26 08:12:15;;;;;;;7.50;3.28;;;22.00;97.00;;;;;;5049006;28;20056;-79
2023/05/26 08:14:40;;;;;;;5.43;3.30;;;22.40;97.80;;;;;;5049070;28;20502;-79
2023/05/26 08:17:06;;;;;;;8.95;3.40;;;22.20;98.40;;;;;;5048905;28;20070;-79
2023/05/26 08:19:32;;;;;;;7.10;2.75;;;22.10;98.10;;;;;;5049589;28;20028;-79
2023/05/26 08:21:57;;;;;;;7.10;3.00;;;22.10;98.10;;;;;;5048776;28;20402;-79
2023/05/26 08:24:25;;;;;;;5.75;3.38;;;22.20;98.80;;;;;;5049079;28;20441;-79
2023/05/26 08:26:50;;;;;;;5.97;3.25;;;22.20;98.20;;;;;;5048992;28;20184;-80
2023/05/26 08:29:16;;;;;;;7.57;3.47;;;21.70;98.30;;;;;;5048927;28;20036;-79
2023/05/26 08:31:42;;;;;;;6.97;2.97;;;21.80;98.80;;;;;;5049019;28;20571;-79
2023/05/26 08:34:08;;;;;;;4.35;2.45;;;21.90;97.70;;;;;;5048390;28;20033;-80
2023/05/26 08:36:35;;;;;;;6.40;2.95;;;21.30;97.80;;;;;;5048061;28;20467;-79
2023/05/26 08:39:00;;;;;;;5.05;2.72;;;21.70;98.10;;;;;;5048504;28;20386;-80
2023/05/26 08:41:32;;;;;;;5.95;2.97;;;21.90;98.60;;;;;;5048390;28;20040;-80
2023/05/26 08:44:01;;;;;;;6.65;3.17;;;21.80;98.60;;;;;;5048954;28;20025;-80
2023/05/26 08:46:29;;;;;;;6.43;3.08;;;21.90;98.00;;;;;;5048588;28;20426;-80
2023/05/26 08:48:56;;;;;;;7.95;3.17;;;21.90;98.70;;;;;;5048580;28;20033;-80
2023/05/26 08:51:22;;;;;;;6.25;3.30;;;22.40;98.20;;;;;;5048178;28;20479;-80
2023/05/26 08:53:49;;;;;;;4.60;2.78;;;22.60;97.50;;;;;;5048569;28;20116;-80
2023/05/26 08:56:16;;;;;;;6.78;2.67;;;22.40;98.10;;;;;;5048223;28;20064;-80
2023/05/26 08:58:43;;;;;;;5.57;2.78;;;22.40;97.50;;;;;;5048705;28;20044;-80
2023/05/26 09:01:09;;;;;;;5.85;2.70;;;22.20;97.40;;;;;;5049018;28;20025;-80
2023/05/26 09:03:35;;;;;;;7.07;2.92;;;22.50;97.90;;;;;;5048300;28;20360;-80
2023/05/26 09:06:03;;;;;;;6.05;2.65;;;22.90;97.60;;;;;;5048576;28;20069;-80
2023/05/26 09:08:28;;;;;;;4.60;3.10;;;22.80;97.50;;;;;;5047177;28;20155;-80
2023/05/26 09:10:54;;;;;;;4.60;2.58;;;23.00;98.00;;;;;;5048382;28;20112;-80
2023/05/26 09:13:21;;;;;;;5.60;2.78;;;22.80;97.20;;;;;;5048228;28;20029;-80
2023/05/26 09:15:51;;;;;;;4.85;2.38;;;23.00;98.10;;;;;;5048340;28;20060;-80
2023/05/26 09:18:18;;;;;;;6.57;2.60;;;23.20;97.00;;;;;;5047892;28;20033;-80
2023/05/26 09:20:46;;;;;;;5.82;3.17;;;23.00;95.30;;;;;;5048217;28;20029;-80
2023/05/26 09:23:14;;;;;;;6.05;2.60;;;23.10;95.60;;;;;;5047778;28;20563;-80
2023/05/26 09:25:41;;;;;;;6.32;2.50;;;23.40;95.90;;;;;;5048261;28;20032;-80
2023/05/26 09:28:09;;;;;;;6.95;2.78;;;23.90;95.30;;;;;;5048143;28;20104;-80
2023/05/26 09:30:45;;;;;;;4.25;2.25;;;23.90;94.90;;;;;;5047899;28;20491;-81
2023/05/26 09:33:18;;;;;;;5.25;2.95;;;24.30;95.30;;;;;;5048188;28;20029;-80
2023/05/26 09:35:46;;;;;;;4.78;2.15;;;24.30;95.60;;;;;;5047925;28;20037;-80
2023/05/26 09:38:15;;;;;;;4.85;2.20;;;24.10;94.60;;;;;;5048041;28;20025;-81
2023/05/26 09:40:42;;;;;;;8.18;3.25;;;23.80;95.20;;;;;;5047991;28;20098;-80
2023/05/26 09:43:08;;;;;;;6.18;3.22;;;23.90;95.20;;;;;;5047432;28;20044;-80
2023/05/26 09:45:35;;;;;;;5.60;2.67;;;23.60;95.10;;;;;;5047470;28;20024;-80
2023/05/26 09:48:03;;;;;;;5.30;2.83;;;24.00;95.40;;;;;;5047740;28;20033;-80
2023/05/26 09:50:33;;;;;;;4.57;2.40;;;24.30;94.60;;;;;;5047475;28;20502;-80
2023/05/26 09:53:09;;;;;;;4.93;2.28;;;24.50;95.50;;;;;;5047569;28;20068;-80
2023/05/26 09:55:36;;;;;;;4.93;2.50;;;24.30;94.70;;;;;;5047469;28;20563;-81
2023/05/26 09:58:09;;;;;;;4.28;2.42;;;24.30;94.80;;;;;;5047302;28;20053;-80
2023/05/26 10:00:38;;;;;;;6.75;2.80;;;24.00;95.10;;;;;;5047568;28;20083;-80
2023/05/26 10:03:07;;;;;;;6.55;2.92;;;24.20;96.40;;;;;;5047886;28;20095;-81
2023/05/26 10:05:45;;;;;;;9.88;3.40;;;24.40;95.30;;;;;;5047424;28;20036;-80
2023/05/26 10:08:14;;;;;;;4.97;2.10;;;24.80;96.00;;;;;;5047794;28;20017;-80
2023/05/26 10:10:44;;;;;;;5.18;2.65;;;24.60;95.20;;;;;;5047786;28;20036;-81
2023/05/26 10:13:10;;;;;;;6.45;2.97;;;24.50;95.90;;;;;;5047597;28;20089;-80
2023/05/26 10:15:36;;;;;;;5.35;2.70;;;25.00;95.50;;;;;;5047329;28;20033;-80
2023/05/26 10:18:02;;;;;;;3.60;2.22;;;25.00;95.60;;;;;;5047488;28;20491;-80
2023/05/26 10:20:29;;;;;;;4.82;2.30;;;25.30;95.90;;;;;;5049919;28;20040;-80
2023/05/26 10:23:14;;;;;;;6.60;2.30;;;25.70;95.20;;;;;;5051515;28;20105;-80
2023/05/26 10:25:55;;;;;;;4.43;2.42;;;26.00;94.90;;;;;;5051779;28;20043;-81
2023/05/26 10:28:51;;;;;;;8.05;3.00;;;25.50;94.20;;;;;;5050965;28;20029;-81
2023/05/26 10:31:36;;;;;;;4.10;2.15;;;25.80;96.20;;;;;;5050995;28;20048;-80
2023/05/26 10:34:13;;;;;;;4.70;2.40;;;25.80;94.30;;;;;;5051232;28;20584;-80
2023/05/26 10:36:39;;;;;;;5.50;2.33;;;25.40;93.80;;;;;;5051331;28;20110;-81
2023/05/26 10:39:11;;;;;;;6.88;2.70;;;25.50;94.70;;;;;;5051240;28;20468;-81
2023/05/26 10:41:39;;;;;;;4.88;2.47;;;25.70;94.70;;;;;;5051286;28;20075;-81
2023/05/26 10:44:06;;;;;;;4.22;2.20;;;26.10;94.10;;;;;;5051460;28;20590;-81
2023/05/26 10:46:58;;;;;;;7.10;2.10;;;26.20;93.80;;;;;;5051085;28;20032;-81
2023/05/26 10:49:24;;;;;;;4.80;2.42;;;26.10;93.70;;;;;;5051307;28;20029;-81
2023/05/26 10:51:54;;;;;;;5.57;2.22;;;26.00;93.50;;;;;;5051214;28;20017;-81
2023/05/26 10:54:24;;;;;;;5.70;2.72;;;26.30;93.30;;;;;;5050669;28;20040;-81
2023/05/26 10:56:52;;;;;;;3.65;2.33;;;26.10;94.10;;;;;;5050762;28;20041;-81
2023/05/26 10:59:35;;;;;;;9.55;2.50;;;26.00;93.40;;;;;;5050704;28;20024;-80
2023/05/26 11:02:06;;;;;;;4.97;2.25;;;25.80;93.70;;;;;;5050654;28;20025;-80
2023/05/26 11:04:42;;;;;;;4.35;2.33;;;26.20;95.50;;;;;;5050890;28;20033;-80
2023/05/26 11:07:27;;;;;;;4.10;2.50;;;26.50;94.40;;;;;;5050685;28;20391;-80
2023/05/26 11:10:05;;;;;;;5.15;2.47;;;26.50;94.40;;;;;;5050649;28;20060;-80
2023/05/26 11:12:50;;;;;;;10.82;3.05;;;26.10;93.70;;;;;;5066140;28;20438;-80
2023/05/26 11:15:30;;;;;;;4.88;2.40;;;26.30;95.00;;;;;;5050540;28;20043;-80
2023/05/26 11:17:57;;;;;;;4.10;2.38;;;26.20;93.90;;;;;;5050265;28;20147;-80
2023/05/26 11:20:24;;;;;;;5.07;3.10;;;26.00;93.80;;;;;;5050621;28;20029;-80
2023/05/26 11:22:52;;;;;;;4.13;2.63;;;26.00;94.60;;;;;;5049987;28;20029;-80
2023/05/26 11:25:18;;;;;;;4.15;2.13;;;26.20;94.00;;;;;;5050286;28;20021;-80
2023/05/26 11:27:48;;;;;;;6.53;2.50;;;26.40;94.00;;;;;;5050215;28;20582;-80
2023/05/26 11:30:14;;;;;;;5.32;2.60;;;26.60;93.40;;;;;;5049819;28;20471;-80
2023/05/26 11:32:47;;;;;;;6.38;2.47;;;26.50;94.10;;;;;;5049271;28;20025;-80
2023/05/26 11:35:24;;;;;;;6.05;2.85;;;26.30;92.70;;;;;;5050355;28;20483;-80
2023/05/26 11:37:50;;;;;;;8.35;2.30;;;26.40;93.80;;;;;;5049909;28;20033;-80
2023/05/26 11:40:17;;;;;;;3.72;2.10;;;26.70;93.10;;;;;;5050411;28;20029;-80
2023/05/26 11:42:53;;;;;;;4.50;2.47;;;26.90;93.30;;;;;;5050237;28;20040;-80
2023/05/26 11:45:19;;;;;;;4.45;1.95;;;27.00;94.30;;;;;;5050085;28;20075;-80
2023/05/26 11:47:44;;;;;;;4.75;2.47;;;26.90;92.60;;;;;;5050109;28;20036;-80
2023/05/26 11:50:11;;;;;;;4.72;2.38;;;26.80;92.30;;;;;;5050147;28;20227;-80
2023/05/26 11:52:47;;;;;;;5.63;2.33;;;26.80;91.60;;;;;;5050187;28;20434;-80
2023/05/26 11:55:14;;;;;;;5.10;2.55;;;27.40;92.70;;;;;;5049790;28;20098;-80
2023/05/26 11:57:42;;;;;;;4.60;2.45;;;27.60;92.20;;;;;;5049372;28;20029;-80
2023/05/26 12:00:14;;;;;;;4.45;2.28;;;27.60;91.60;;;;;;5048716;28;20379;-80
2023/05/26 12:02:40;;;;;;;5.45;2.40;;;27.90;91.00;;;;;;5050078;28;20120;-80
2023/05/26 12:05:29;;;;;;;4.47;2.60;;;27.90;91.80;;;;;;5049752;28;20265;-80
2023/05/26 12:08:05;;;;;;;4.65;2.50;;;27.80;91.10;;;;;;5049496;28;20017;-81
2023/05/26 12:10:32;;;;;;;4.90;2.85;;;27.80;90.70;;;;;;5049589;28;20064;-80
2023/05/26 12:12:58;;;;;;;8.40;2.90;;;27.80;91.90;;;;;;5049887;28;20028;-80
2023/05/26 12:15:25;;;;;;;4.20;1.85;;;27.90;90.90;;;;;;5049557;28;20479;-80
2023/05/26 12:17:52;;;;;;;6.60;2.33;;;28.00;90.70;;;;;;5050100;28;20116;-80
2023/05/26 12:20:18;;;;;;;7.18;2.67;;;28.00;89.50;;;;;;5049955;28;20029;-81
2023/05/26 12:22:44;;;;;;;5.28;2.38;;;28.20;91.90;;;;;;5048670;28;20499;-80
2023/05/26 12:25:10;;;;;;;6.53;2.30;;;28.20;90.90;;;;;;5049595;28;20028;-80
2023/05/26 12:27:37;;;;;;;7.10;2.58;;;28.30;89.70;;;;;;5049570;28;20060;-80
2023/05/26 12:30:25;;;;;;;6.68;2.70;;;28.40;89.20;;;;;;5050078;28;20684;-80
2023/05/26 12:32:52;;;;;;;5.65;2.15;;;28.20;90.80;;;;;;5050503;28;20064;-80
2023/05/26 12:35:18;;;;;;;4.82;2.50;;;28.30;90.70;;;;;;5050336;28;20104;-80
2023/05/26 12:37:44;;;;;;;4.45;2.33;;;28.30;90.10;;;;;;5049707;28;20029;-81
2023/05/26 12:40:11;;;;;;;5.80;3.00;;;28.30;90.50;;;;;;5050097;28;20517;-81
2023/05/26 12:42:37;;;;;;;6.00;3.00;;;28.30;90.60;;;;;;5049338;28;20044;-80
2023/05/26 12:45:04;;;;;;;5.93;2.28;;;28.40;91.20;;;;;;5049090;28;20025;-80
2023/05/26 12:47:31;;;;;;;5.15;2.55;;;28.30;90.80;;;;;;5049201;28;20025;-80
2023/05/26 12:49:57;;;;;;;14.32;2.75;;;28.40;90.10;;;;;;5049119;28;20543;-80